createdAt,value
2023-03-07T00:01:24.902Z,-1.61
2023-03-07T00:03:53.330Z,-1.63
2023-03-07T00:06:22.131Z,-1.67
2023-03-07T00:08:54.085Z,-1.69
2023-03-07T00:11:23.624Z,-1.70
2023-03-07T00:13:52.085Z,-1.70
2023-03-07T00:16:21.492Z,-1.69
2023-03-07T00:18:49.623Z,-1.70
2023-03-07T00:21:21.798Z,-1.71
2023-03-07T00:23:52.208Z,-1.73
2023-03-07T00:26:22.443Z,-1.74
2023-03-07T00:28:51.780Z,-1.76
2023-03-07T00:31:20.711Z,-1.77
2023-03-07T00:33:50.696Z,-1.77
2023-03-07T00:36:27.058Z,-1.78
2023-03-07T00:38:55.360Z,-1.79
2023-03-07T00:41:27.938Z,-1.82
2023-03-07T00:43:56.141Z,-1.83
2023-03-07T00:46:24.890Z,-1.85
2023-03-07T00:48:53.567Z,-1.87
2023-03-07T00:51:26.404Z,-1.88
2023-03-07T00:53:54.497Z,-1.89
2023-03-07T00:56:23.962Z,-1.92
2023-03-07T00:58:52.985Z,-1.93
2023-03-07T01:01:22.920Z,-1.95
2023-03-07T01:03:56.281Z,-1.94
2023-03-07T01:06:27.542Z,-1.94
2023-03-07T01:08:57.795Z,-1.93
2023-03-07T01:11:28.892Z,-1.91
2023-03-07T01:14:01.707Z,-1.89
2023-03-07T01:16:36.412Z,-1.87
2023-03-07T01:19:07.090Z,-1.86
2023-03-07T01:21:37.986Z,-1.86
2023-03-07T01:24:06.939Z,-1.84
2023-03-07T01:26:35.353Z,-1.82
2023-03-07T01:29:04.782Z,-1.79
2023-03-07T01:31:35.989Z,-1.76
2023-03-07T01:34:05.554Z,-1.73
2023-03-07T01:36:36.342Z,-1.70
2023-03-07T01:39:10.944Z,-1.69
2023-03-07T01:41:43.017Z,-1.67
2023-03-07T01:44:16.218Z,-1.66
2023-03-07T01:46:46.704Z,-1.65
2023-03-07T01:49:21.088Z,-1.63
2023-03-07T01:51:55.224Z,-1.62
2023-03-07T01:54:24.741Z,-1.60
2023-03-07T01:56:58.118Z,-1.60
2023-03-07T01:59:29.716Z,-1.60
2023-03-07T02:01:59.203Z,-1.59
2023-03-07T02:04:29.118Z,-1.59
2023-03-07T02:06:57.353Z,-1.59
2023-03-07T02:09:33.139Z,-1.59
2023-03-07T02:12:01.852Z,-1.59
2023-03-07T02:14:30.984Z,-1.59
2023-03-07T02:17:01.729Z,-1.60
2023-03-07T02:19:46.567Z,-1.63
2023-03-07T02:22:20.210Z,-1.66
2023-03-07T02:24:57.588Z,-1.68
2023-03-07T02:27:26.181Z,-1.70
2023-03-07T02:29:55.520Z,-1.72
2023-03-07T02:32:24.660Z,-1.74
2023-03-07T02:34:52.844Z,-1.75
2023-03-07T02:37:25.279Z,-1.75
2023-03-07T02:39:53.649Z,-1.77
2023-03-07T02:42:23.951Z,-1.80
2023-03-07T02:45:01.521Z,-1.84
2023-03-07T02:47:32.943Z,-1.89
2023-03-07T02:50:05.196Z,-1.93
2023-03-07T02:52:34.202Z,-1.96
2023-03-07T02:55:03.442Z,-1.99
2023-03-07T02:57:42.183Z,-2.00
2023-03-07T03:00:12.609Z,-2.01
2023-03-07T03:02:41.051Z,-2.01
2023-03-07T03:05:10.053Z,-2.02
2023-03-07T03:07:38.291Z,-2.04
2023-03-07T03:10:07.606Z,-2.05
2023-03-07T03:12:37.571Z,-2.05
2023-03-07T03:15:07.123Z,-2.03
2023-03-07T03:17:35.339Z,-2.01
2023-03-07T03:20:09.042Z,-1.98
2023-03-07T03:22:41.417Z,-1.93
2023-03-07T03:25:12.182Z,-1.88
2023-03-07T03:27:42.042Z,-1.82
2023-03-07T03:30:11.980Z,-1.77
2023-03-07T03:32:48.816Z,-1.72
2023-03-07T03:35:17.552Z,-1.67
2023-03-07T03:37:46.394Z,-1.62
2023-03-07T03:40:17.875Z,-1.57
2023-03-07T03:42:47.049Z,-1.50
2023-03-07T03:45:16.656Z,-1.43
2023-03-07T03:47:44.686Z,-1.36
2023-03-07T03:50:18.920Z,-1.30
2023-03-07T03:52:47.819Z,-1.25
2023-03-07T03:55:16.214Z,-1.19
2023-03-07T03:57:44.636Z,-1.14
2023-03-07T04:00:15.391Z,-1.08
2023-03-07T04:02:44.119Z,-1.01
2023-03-07T04:05:13.343Z,-0.94
2023-03-07T04:07:41.760Z,-0.86
2023-03-07T04:10:11.045Z,-0.77
2023-03-07T04:12:41.422Z,-0.69
2023-03-07T04:15:09.897Z,-0.56
2023-03-07T04:17:40.871Z,-0.43
2023-03-07T04:20:15.077Z,-0.33
2023-03-07T04:22:43.735Z,-0.23
2023-03-07T04:25:12.482Z,-0.14
2023-03-07T04:27:40.850Z,-0.09
2023-03-07T04:30:12.022Z,-0.02
2023-03-07T04:32:42.757Z,0.02
2023-03-07T04:35:10.944Z,0.06
2023-03-07T04:37:39.576Z,0.11
2023-03-07T04:40:09.353Z,0.13
2023-03-07T04:42:38.007Z,0.16
2023-03-07T04:45:07.481Z,0.20
2023-03-07T04:47:37.667Z,0.23
2023-03-07T04:50:06.762Z,0.25
2023-03-07T04:52:36.959Z,0.28
2023-03-07T04:55:05.418Z,0.32
2023-03-07T04:57:34.354Z,0.35
2023-03-07T05:00:02.708Z,0.36
2023-03-07T05:02:57.732Z,0.39
2023-03-07T05:05:26.077Z,0.41
2023-03-07T05:07:54.489Z,0.42
2023-03-07T05:10:22.884Z,0.44
2023-03-07T05:12:53.828Z,0.45
2023-03-07T05:15:21.841Z,0.46
2023-03-07T05:17:51.124Z,0.48
2023-03-07T05:20:19.265Z,0.50
2023-03-07T05:22:47.722Z,0.53
2023-03-07T05:25:16.154Z,0.53
2023-03-07T05:27:45.217Z,0.56
2023-03-07T05:30:17.738Z,0.61
2023-03-07T05:32:46.198Z,0.64
2023-03-07T05:35:16.210Z,0.67
2023-03-07T05:37:45.058Z,0.69
2023-03-07T05:40:15.634Z,0.75
2023-03-07T05:42:50.615Z,0.81
2023-03-07T05:45:21.339Z,0.86
2023-03-07T05:47:50.413Z,0.91
2023-03-07T05:50:24.172Z,0.94
2023-03-07T05:52:53.175Z,0.91
2023-03-07T05:55:30.260Z,0.86
2023-03-07T05:57:58.876Z,0.73
2023-03-07T06:00:27.940Z,0.65
2023-03-07T06:03:04.855Z,0.54
2023-03-07T06:05:33.607Z,0.43
2023-03-07T06:08:08.346Z,0.32
2023-03-07T06:10:40.359Z,0.23
2023-03-07T06:13:16.723Z,0.12
2023-03-07T06:15:44.864Z,0.07
2023-03-07T06:18:15.057Z,0.03
2023-03-07T06:20:43.524Z,-0.02
2023-03-07T06:23:13.330Z,-0.05
2023-03-07T06:25:41.774Z,-0.07
2023-03-07T06:28:12.054Z,-0.08
2023-03-07T06:30:40.914Z,-0.10
2023-03-07T06:33:09.943Z,-0.09
2023-03-07T06:35:40.535Z,-0.07
2023-03-07T06:38:08.759Z,-0.05
2023-03-07T06:40:37.131Z,-0.05
2023-03-07T06:43:08.871Z,-0.05
2023-03-07T06:45:37.339Z,-0.02
2023-03-07T06:48:09.500Z,0.03
2023-03-07T06:50:41.862Z,0.09
2023-03-07T06:53:10.030Z,0.15
2023-03-07T06:55:38.775Z,0.21
2023-03-07T06:58:07.033Z,0.27
2023-03-07T07:00:35.093Z,0.29
2023-03-07T07:03:03.578Z,0.29
2023-03-07T07:05:31.951Z,0.31
2023-03-07T07:08:00.516Z,0.34
2023-03-07T07:10:28.719Z,0.34
2023-03-07T07:12:58.216Z,0.36
2023-03-07T07:15:29.346Z,0.35
2023-03-07T07:17:59.724Z,0.33
2023-03-07T07:20:28.846Z,0.33
2023-03-07T07:22:57.139Z,0.34
2023-03-07T07:25:25.689Z,0.36
2023-03-07T07:27:53.936Z,0.39
2023-03-07T07:30:21.924Z,0.41
2023-03-07T07:32:50.753Z,0.42
2023-03-07T07:35:20.251Z,0.42
2023-03-07T07:37:48.361Z,0.42
2023-03-07T07:40:16.466Z,0.42
2023-03-07T07:42:54.602Z,0.41
2023-03-07T07:45:43.567Z,0.41
2023-03-07T07:48:15.554Z,0.39
2023-03-07T07:50:44.220Z,0.41
2023-03-07T07:53:12.309Z,0.45
2023-03-07T07:55:44.428Z,0.48
2023-03-07T07:58:12.548Z,0.51
2023-03-07T08:00:40.906Z,0.53
2023-03-07T08:03:09.285Z,0.55
2023-03-07T08:05:38.767Z,0.58
2023-03-07T08:08:07.082Z,0.62
2023-03-07T08:10:35.779Z,0.64
2023-03-07T08:13:04.868Z,0.67
2023-03-07T08:15:33.322Z,0.72
2023-03-07T08:18:03.295Z,0.78
2023-03-07T08:20:40.389Z,0.87
2023-03-07T08:23:09.635Z,1.00
2023-03-07T08:25:38.991Z,1.11
2023-03-07T08:28:07.985Z,1.21
2023-03-07T08:30:40.284Z,1.27
2023-03-07T08:33:10.318Z,1.31
2023-03-07T08:35:40.277Z,1.35
2023-03-07T08:38:09.512Z,1.42
2023-03-07T08:40:39.716Z,1.48
2023-03-07T08:43:10.937Z,1.55
2023-03-07T08:45:45.403Z,1.73
2023-03-07T08:48:14.534Z,2.02
2023-03-07T08:50:42.861Z,2.24
2023-03-07T08:53:11.734Z,2.43
2023-03-07T08:55:40.035Z,2.62
2023-03-07T08:58:11.402Z,2.64
2023-03-07T09:00:40.029Z,2.60
2023-03-07T09:03:08.165Z,2.44
2023-03-07T09:05:39.501Z,2.33
2023-03-07T09:08:07.773Z,2.21
2023-03-07T09:10:37.699Z,2.05
2023-03-07T09:13:09.261Z,1.96
2023-03-07T09:15:41.690Z,1.83
2023-03-07T09:18:09.985Z,1.71
2023-03-07T09:20:38.646Z,1.65
2023-03-07T09:23:07.587Z,1.62
2023-03-07T09:25:37.128Z,1.64
2023-03-07T09:28:05.136Z,1.85
2023-03-07T09:30:33.521Z,2.36
2023-03-07T09:33:04.315Z,3.02
2023-03-07T09:35:32.499Z,3.64
2023-03-07T09:38:00.764Z,4.22
2023-03-07T09:40:30.346Z,4.89
2023-03-07T09:43:09.458Z,5.47
2023-03-07T09:45:39.559Z,5.83
2023-03-07T09:48:43.596Z,5.77
2023-03-07T09:51:44.432Z,4.97
2023-03-07T09:54:13.854Z,4.18
2023-03-07T09:56:45.178Z,3.84
2023-03-07T09:59:33.655Z,3.69
2023-03-07T10:02:25.003Z,3.72
2023-03-07T10:05:03.036Z,3.77
2023-03-07T10:07:32.717Z,3.39
2023-03-07T10:10:17.854Z,3.50
2023-03-07T10:12:51.926Z,3.77
2023-03-07T10:15:27.022Z,3.76
2023-03-07T10:18:20.911Z,3.67
2023-03-07T10:21:02.221Z,3.61
2023-03-07T10:23:56.205Z,3.57
2023-03-07T10:26:35.013Z,3.54
2023-03-07T10:29:17.548Z,3.59
2023-03-07T10:31:48.607Z,3.63
2023-03-07T10:34:31.282Z,3.64
2023-03-07T10:37:36.139Z,3.51
2023-03-07T10:40:05.180Z,3.37
2023-03-07T10:42:36.534Z,3.34
2023-03-07T10:45:05.982Z,3.63
2023-03-07T10:47:34.438Z,4.10
2023-03-07T10:50:28.594Z,4.75
2023-03-07T10:52:58.444Z,5.95
2023-03-07T10:55:35.983Z,6.95
2023-03-07T10:58:14.429Z,7.71
2023-03-07T11:00:46.854Z,7.63
2023-03-07T11:03:54.231Z,7.05
2023-03-07T11:06:26.290Z,6.07
2023-03-07T11:08:56.347Z,5.91
2023-03-07T11:11:31.416Z,5.95
2023-03-07T11:14:09.768Z,5.83
2023-03-07T11:16:51.345Z,5.49
2023-03-07T11:19:43.748Z,5.09
2023-03-07T11:22:27.251Z,4.83
2023-03-07T11:25:05.587Z,4.89
2023-03-07T11:27:46.374Z,5.50
2023-03-07T11:30:23.768Z,6.03
2023-03-07T11:32:56.298Z,6.35
2023-03-07T11:35:41.812Z,6.24
2023-03-07T11:38:27.277Z,6.01
2023-03-07T11:41:08.932Z,6.13
2023-03-07T11:43:48.225Z,6.21
2023-03-07T11:46:27.651Z,6.48
2023-03-07T11:48:58.894Z,6.55
2023-03-07T11:52:01.317Z,6.07
2023-03-07T11:54:42.789Z,5.41
2023-03-07T11:57:37.368Z,5.12
2023-03-07T12:00:25.874Z,4.90
2023-03-07T12:03:12.254Z,4.85
2023-03-07T12:08:55.288Z,5.01
2023-03-07T12:11:48.083Z,5.20
2023-03-07T12:15:01.089Z,5.37
2023-03-07T12:17:38.560Z,5.58
2023-03-07T12:20:26.418Z,5.58
2023-03-07T12:23:37.159Z,5.69
2023-03-07T12:26:17.106Z,5.53
2023-03-07T12:28:47.963Z,5.20
2023-03-07T12:31:40.550Z,4.95
2023-03-07T12:34:20.329Z,4.74
2023-03-07T12:37:03.131Z,4.57
2023-03-07T12:39:49.918Z,4.44
2023-03-07T12:42:32.934Z,4.36
2023-03-07T12:45:12.063Z,4.44
2023-03-07T12:47:52.499Z,4.49
2023-03-07T12:50:34.112Z,4.45
2023-03-07T12:53:32.508Z,4.38
2023-03-07T12:56:18.951Z,4.31
2023-03-07T12:59:14.192Z,4.28
2023-03-07T13:02:00.559Z,4.27
2023-03-07T13:04:34.042Z,4.28
2023-03-07T13:07:27.816Z,4.33
2023-03-07T13:09:58.110Z,4.36
2023-03-07T13:12:29.921Z,4.39
2023-03-07T13:15:00.048Z,4.33
2023-03-07T13:17:31.547Z,4.32
2023-03-07T13:20:15.600Z,4.37
2023-03-07T13:22:50.117Z,4.39
2023-03-07T13:25:21.468Z,4.43
2023-03-07T13:27:54.189Z,4.50
2023-03-07T13:30:32.133Z,4.55
2023-03-07T13:33:25.914Z,4.59
2023-03-07T13:35:58.896Z,4.63
2023-03-07T13:38:31.325Z,4.68
2023-03-07T13:41:04.680Z,4.76
2023-03-07T13:47:45.491Z,5.00
2023-03-07T13:50:35.875Z,5.03
2023-03-07T13:53:14.202Z,5.09
2023-03-07T13:55:47.395Z,5.07
2023-03-07T13:58:20.951Z,5.08
2023-03-07T14:00:54.182Z,5.13
2023-03-07T14:03:59.890Z,5.17
2023-03-07T14:06:34.081Z,5.28
2023-03-07T14:09:02.850Z,5.30
2023-03-07T14:12:10.337Z,5.30
2023-03-07T14:14:45.708Z,5.23
2023-03-07T14:17:53.864Z,5.10
2023-03-07T14:20:44.665Z,4.90
2023-03-07T14:23:42.517Z,4.82
2023-03-07T14:26:34.121Z,4.78
2023-03-07T14:29:15.612Z,4.77
2023-03-07T14:31:44.674Z,4.75
2023-03-07T14:34:22.080Z,4.75
2023-03-07T14:37:07.339Z,4.75
2023-03-07T14:40:29.220Z,4.76
2023-03-07T14:43:30.672Z,4.76
2023-03-07T14:46:29.577Z,4.72
2023-03-07T14:49:09.077Z,4.62
2023-03-07T14:51:40.753Z,4.56
2023-03-07T14:54:18.182Z,4.49
2023-03-07T14:56:46.364Z,4.43
2023-03-07T14:59:27.819Z,4.37
2023-03-07T15:01:57.485Z,4.30
2023-03-07T15:04:32.516Z,4.25
2023-03-07T15:07:05.740Z,4.17
2023-03-07T15:09:33.965Z,4.13
2023-03-07T15:12:10.195Z,4.08
2023-03-07T15:14:51.723Z,4.05
2023-03-07T15:17:44.230Z,4.01
2023-03-07T15:20:23.826Z,3.95
2023-03-07T15:23:03.124Z,3.89
2023-03-07T15:25:32.837Z,3.82
2023-03-07T15:28:06.252Z,3.77
2023-03-07T15:30:40.812Z,3.72
2023-03-07T15:33:19.050Z,3.64
2023-03-07T15:36:14.042Z,3.60
2023-03-07T15:38:45.124Z,3.53
2023-03-07T15:41:33.569Z,3.48
2023-03-07T15:44:11.268Z,3.41
2023-03-07T15:46:42.649Z,3.35
2023-03-07T15:49:44.265Z,3.30
2023-03-07T15:52:37.118Z,3.26
2023-03-07T15:55:08.382Z,3.23
2023-03-07T15:58:08.005Z,3.22
2023-03-07T16:00:38.554Z,3.20
2023-03-07T16:03:29.858Z,3.20
2023-03-07T16:05:59.374Z,3.19
2023-03-07T16:08:29.274Z,3.19
2023-03-07T16:11:03.307Z,3.19
2023-03-07T16:13:40.960Z,3.19
2023-03-07T16:16:12.116Z,3.21
2023-03-07T16:18:40.509Z,3.21
2023-03-07T16:21:14.211Z,3.20
2023-03-07T16:23:44.439Z,3.20
2023-03-07T16:26:15.186Z,3.19
2023-03-07T16:28:44.265Z,3.17
2023-03-07T16:31:12.873Z,3.16
2023-03-07T16:33:41.729Z,3.15
2023-03-07T16:36:14.158Z,3.13
2023-03-07T16:38:42.472Z,3.11
2023-03-07T16:41:15.489Z,3.09
2023-03-07T16:43:44.064Z,3.04
2023-03-07T16:46:15.856Z,2.94
2023-03-07T16:48:45.796Z,2.85
2023-03-07T16:51:19.180Z,2.78
2023-03-07T16:53:48.608Z,2.73
2023-03-07T16:56:35.551Z,2.69
2023-03-07T16:59:03.870Z,2.66
2023-03-07T17:01:32.694Z,2.63
2023-03-07T17:04:00.760Z,2.61
2023-03-07T17:06:38.813Z,2.57
2023-03-07T17:09:12.129Z,2.50
2023-03-07T17:11:45.564Z,2.43
2023-03-07T17:14:14.288Z,2.36
2023-03-07T17:16:45.086Z,2.34
2023-03-07T17:19:24.045Z,2.31
2023-03-07T17:21:52.946Z,2.31
2023-03-07T17:24:21.185Z,2.35
2023-03-07T17:26:49.643Z,2.32
2023-03-07T17:29:24.137Z,2.24
2023-03-07T17:31:52.203Z,2.18
2023-03-07T17:34:28.533Z,2.16
2023-03-07T17:36:57.775Z,2.18
2023-03-07T17:39:30.006Z,2.21
2023-03-07T17:42:00.167Z,2.23
2023-03-07T17:44:29.974Z,2.23
2023-03-07T17:46:58.340Z,2.21
2023-03-07T17:49:36.686Z,2.15
2023-03-07T17:52:07.294Z,2.09
2023-03-07T17:54:35.841Z,2.01
2023-03-07T17:57:06.514Z,1.96
2023-03-07T17:59:34.881Z,1.95
2023-03-07T18:02:05.826Z,2.00
2023-03-07T18:04:34.252Z,2.02
2023-03-07T18:07:02.582Z,2.05
2023-03-07T18:09:32.275Z,2.10
2023-03-07T18:12:00.814Z,2.14
2023-03-07T18:14:28.971Z,2.17
2023-03-07T18:16:57.181Z,2.22
2023-03-07T18:19:27.122Z,2.25
2023-03-07T18:21:56.039Z,2.28
2023-03-07T18:24:30.235Z,2.30
2023-03-07T18:27:02.584Z,2.36
2023-03-07T18:29:32.595Z,2.40
2023-03-07T18:32:00.973Z,2.42
2023-03-07T18:34:30.155Z,2.44
2023-03-07T18:36:59.075Z,2.47
2023-03-07T18:39:27.491Z,2.49
2023-03-07T18:41:55.509Z,2.50
2023-03-07T18:44:23.819Z,2.51
2023-03-07T18:46:53.052Z,2.53
2023-03-07T18:49:21.550Z,2.54
2023-03-07T18:51:49.688Z,2.56
2023-03-07T18:54:18.073Z,2.57
2023-03-07T18:56:47.989Z,2.57
2023-03-07T18:59:16.412Z,2.54
2023-03-07T19:01:45.076Z,2.52
2023-03-07T19:04:13.228Z,2.48
2023-03-07T19:06:45.153Z,2.42
2023-03-07T19:09:18.862Z,2.37
2023-03-07T19:11:48.279Z,2.30
2023-03-07T19:14:16.787Z,2.22
2023-03-07T19:16:45.180Z,2.14
2023-03-07T19:19:13.582Z,2.06
2023-03-07T19:21:47.599Z,1.98
2023-03-07T19:24:15.618Z,1.93
2023-03-07T19:26:43.688Z,1.88
2023-03-07T19:29:13.275Z,1.85
2023-03-07T19:31:43.978Z,1.83
2023-03-07T19:34:12.262Z,1.80
2023-03-07T19:36:41.750Z,1.73
2023-03-07T19:39:20.531Z,1.68
2023-03-07T19:41:49.116Z,1.62
2023-03-07T19:44:17.375Z,1.58
2023-03-07T19:46:48.277Z,1.53
2023-03-07T19:49:23.149Z,1.53
2023-03-07T19:51:51.261Z,1.51
2023-03-07T19:54:20.674Z,1.48
2023-03-07T19:56:48.711Z,1.46
2023-03-07T19:59:16.791Z,1.44
2023-03-07T20:01:46.731Z,1.42
2023-03-07T20:04:16.127Z,1.40
2023-03-07T20:06:44.480Z,1.38
2023-03-07T20:09:13.138Z,1.36
2023-03-07T20:11:43.527Z,1.34
2023-03-07T20:14:12.207Z,1.34
2023-03-07T20:17:07.671Z,1.35
2023-03-07T20:19:36.348Z,1.33
2023-03-07T20:22:06.426Z,1.31
2023-03-07T20:24:36.204Z,1.31
2023-03-07T20:27:04.340Z,1.31
2023-03-07T20:29:32.555Z,1.29
2023-03-07T20:32:01.486Z,1.27
2023-03-07T20:34:29.953Z,1.26
2023-03-07T20:36:58.436Z,1.25
2023-03-07T20:39:26.895Z,1.25
2023-03-07T20:41:54.935Z,1.24
2023-03-07T20:44:23.127Z,1.24
2023-03-07T20:46:51.150Z,1.24
2023-03-07T20:49:19.229Z,1.23
2023-03-07T20:51:48.834Z,1.23
2023-03-07T20:54:17.823Z,1.22
2023-03-07T20:56:46.931Z,1.21
2023-03-07T20:59:18.779Z,1.19
2023-03-07T21:01:47.187Z,1.18
2023-03-07T21:04:17.787Z,1.16
2023-03-07T21:06:47.320Z,1.14
2023-03-07T21:09:16.137Z,1.13
2023-03-07T21:11:49.146Z,1.11
2023-03-07T21:14:19.530Z,1.11
2023-03-07T21:16:52.440Z,1.09
2023-03-07T21:19:24.021Z,1.06
2023-03-07T21:21:52.211Z,1.03
2023-03-07T21:24:20.557Z,1.02
2023-03-07T21:26:49.368Z,0.97
2023-03-07T21:29:17.825Z,0.95
2023-03-07T21:31:48.431Z,0.92
2023-03-07T21:34:17.709Z,0.89
2023-03-07T21:36:47.732Z,0.86
2023-03-07T21:39:20.754Z,0.84
2023-03-07T21:41:49.482Z,0.83
2023-03-07T21:44:18.231Z,0.81
2023-03-07T21:46:48.844Z,0.81
2023-03-07T21:49:21.591Z,0.78
2023-03-07T21:51:49.973Z,0.76
2023-03-07T21:54:17.938Z,0.74
2023-03-07T21:56:46.331Z,0.72
2023-03-07T21:59:14.638Z,0.70
2023-03-07T22:01:42.682Z,0.68
2023-03-07T22:04:10.774Z,0.68
2023-03-07T22:06:39.011Z,0.67
2023-03-07T22:09:08.326Z,0.67
2023-03-07T22:11:36.708Z,0.66
2023-03-07T22:14:06.881Z,0.64
2023-03-07T22:16:36.259Z,0.64
2023-03-07T22:19:04.723Z,0.67
2023-03-07T22:21:33.817Z,0.69
2023-03-07T22:24:05.708Z,0.70
2023-03-07T22:26:34.194Z,0.72
2023-03-07T22:29:03.588Z,0.73
2023-03-07T22:31:33.838Z,0.72
2023-03-07T22:34:06.469Z,0.71
2023-03-07T22:36:34.592Z,0.73
2023-03-07T22:39:03.430Z,0.74
2023-03-07T22:41:31.638Z,0.76
2023-03-07T22:44:00.054Z,0.82
2023-03-07T22:46:28.621Z,0.83
2023-03-07T22:48:57.399Z,0.81
2023-03-07T22:51:26.168Z,0.80
2023-03-07T22:53:54.958Z,0.78
2023-03-07T22:56:25.819Z,0.75
2023-03-07T22:58:58.660Z,0.73
2023-03-07T23:01:28.433Z,0.72
2023-03-07T23:03:57.603Z,0.70
2023-03-07T23:06:29.650Z,0.70
2023-03-07T23:08:59.743Z,0.70
2023-03-07T23:11:33.247Z,0.71
2023-03-07T23:14:01.851Z,0.75
2023-03-07T23:16:30.881Z,0.80
2023-03-07T23:18:59.452Z,0.82
2023-03-07T23:21:30.204Z,0.81
2023-03-07T23:23:59.217Z,0.79
2023-03-07T23:26:29.289Z,0.81
2023-03-07T23:28:57.540Z,0.79
2023-03-07T23:31:31.940Z,0.75
2023-03-07T23:34:02.005Z,0.71
2023-03-07T23:36:36.329Z,0.65
2023-03-07T23:39:04.772Z,0.60
2023-03-07T23:41:32.981Z,0.54
2023-03-07T23:44:01.445Z,0.47
2023-03-07T23:46:30.717Z,0.40
2023-03-07T23:48:59.608Z,0.35
2023-03-07T23:51:27.790Z,0.32
2023-03-07T23:53:57.615Z,0.28
2023-03-07T23:56:25.818Z,0.25
2023-03-07T23:58:54.097Z,0.21
